sensor_id;sensor_type;location;lat;lon;timestamp;P1;durP1;ratioP1;P2;durP2;ratioP2
68976;SDS011;56029;52.568;13.588;2023-12-20T00:02:21;13.93;;;4.97;;
68976;SDS011;56029;52.568;13.588;2023-12-20T00:04:46;9.97;;;4.60;;
68976;SDS011;56029;52.568;13.588;2023-12-20T00:07:12;11.02;;;4.78;;
68976;SDS011;56029;52.568;13.588;2023-12-20T00:09:37;10.93;;;4.63;;
68976;SDS011;56029;52.568;13.588;2023-12-20T00:12:03;9.90;;;4.50;;
68976;SDS011;56029;52.568;13.588;2023-12-20T00:14:28;9.88;;;4.47;;
68976;SDS011;56029;52.568;13.588;2023-12-20T00:16:54;9.43;;;4.00;;
68976;SDS011;56029;52.568;13.588;2023-12-20T00:19:19;9.43;;;4.40;;
68976;SDS011;56029;52.568;13.588;2023-12-20T00:21:45;9.45;;;4.30;;
68976;SDS011;56029;52.568;13.588;2023-12-20T00:24:10;10.90;;;5.00;;
68976;SDS011;56029;52.568;13.588;2023-12-20T00:26:36;9.57;;;4.43;;
68976;SDS011;56029;52.568;13.588;2023-12-20T00:29:01;11.10;;;4.73;;
68976;SDS011;56029;52.568;13.588;2023-12-20T00:31:27;10.80;;;4.67;;
68976;SDS011;56029;52.568;13.588;2023-12-20T00:33:53;10.65;;;4.40;;
68976;SDS011;56029;52.568;13.588;2023-12-20T00:36:18;9.77;;;4.40;;
68976;SDS011;56029;52.568;13.588;2023-12-20T00:38:44;10.40;;;4.70;;
68976;SDS011;56029;52.568;13.588;2023-12-20T00:41:09;10.38;;;4.82;;
68976;SDS011;56029;52.568;13.588;2023-12-20T00:43:35;9.70;;;4.80;;
68976;SDS011;56029;52.568;13.588;2023-12-20T00:46:00;10.20;;;4.70;;
68976;SDS011;56029;52.568;13.588;2023-12-20T00:48:26;11.20;;;4.70;;
68976;SDS011;56029;52.568;13.588;2023-12-20T00:50:51;11.05;;;4.57;;
68976;SDS011;56029;52.568;13.588;2023-12-20T00:53:17;9.80;;;4.43;;
68976;SDS011;56029;52.568;13.588;2023-12-20T00:55:42;10.70;;;4.70;;
68976;SDS011;56029;52.568;13.588;2023-12-20T00:58:08;9.77;;;4.50;;
68976;SDS011;56029;52.568;13.588;2023-12-20T01:00:33;10.27;;;4.43;;
68976;SDS011;56029;52.568;13.588;2023-12-20T01:02:59;10.37;;;4.50;;
68976;SDS011;56029;52.568;13.588;2023-12-20T01:05:24;9.95;;;4.53;;
68976;SDS011;56029;52.568;13.588;2023-12-20T01:07:50;8.80;;;4.13;;
68976;SDS011;56029;52.568;13.588;2023-12-20T01:10:15;10.27;;;4.53;;
68976;SDS011;56029;52.568;13.588;2023-12-20T01:12:41;10.75;;;4.47;;
68976;SDS011;56029;52.568;13.588;2023-12-20T01:15:06;10.60;;;4.40;;
68976;SDS011;56029;52.568;13.588;2023-12-20T01:17:32;10.43;;;4.97;;
68976;SDS011;56029;52.568;13.588;2023-12-20T01:19:58;10.40;;;4.60;;
68976;SDS011;56029;52.568;13.588;2023-12-20T01:22:23;11.30;;;4.60;;
68976;SDS011;56029;52.568;13.588;2023-12-20T01:24:49;11.15;;;5.13;;
68976;SDS011;56029;52.568;13.588;2023-12-20T01:27:14;10.77;;;4.70;;
68976;SDS011;56029;52.568;13.588;2023-12-20T01:29:40;11.43;;;5.00;;
68976;SDS011;56029;52.568;13.588;2023-12-20T01:32:05;12.38;;;5.38;;
68976;SDS011;56029;52.568;13.588;2023-12-20T01:34:31;12.60;;;5.40;;
68976;SDS011;56029;52.568;13.588;2023-12-20T01:36:57;11.98;;;5.57;;
68976;SDS011;56029;52.568;13.588;2023-12-20T01:39:22;11.80;;;5.00;;
68976;SDS011;56029;52.568;13.588;2023-12-20T01:41:48;11.83;;;5.40;;
68976;SDS011;56029;52.568;13.588;2023-12-20T01:44:14;11.95;;;5.28;;
68976;SDS011;56029;52.568;13.588;2023-12-20T01:46:39;12.00;;;5.03;;
68976;SDS011;56029;52.568;13.588;2023-12-20T01:49:05;11.63;;;4.80;;
68976;SDS011;56029;52.568;13.588;2023-12-20T01:51:30;11.03;;;4.70;;
68976;SDS011;56029;52.568;13.588;2023-12-20T01:53:57;11.60;;;4.85;;
68976;SDS011;56029;52.568;13.588;2023-12-20T01:56:24;11.93;;;4.83;;
68976;SDS011;56029;52.568;13.588;2023-12-20T01:58:51;10.35;;;4.40;;
68976;SDS011;56029;52.568;13.588;2023-12-20T02:01:17;10.53;;;4.33;;
68976;SDS011;56029;52.568;13.588;2023-12-20T02:03:43;10.80;;;4.70;;
68976;SDS011;56029;52.568;13.588;2023-12-20T02:06:09;9.60;;;4.10;;
68976;SDS011;56029;52.568;13.588;2023-12-20T02:08:36;10.88;;;4.32;;
68976;SDS011;56029;52.568;13.588;2023-12-20T02:11:01;8.97;;;3.67;;
68976;SDS011;56029;52.568;13.588;2023-12-20T02:13:27;10.43;;;4.30;;
68976;SDS011;56029;52.568;13.588;2023-12-20T02:15:53;10.17;;;4.17;;
68976;SDS011;56029;52.568;13.588;2023-12-20T02:18:20;8.73;;;3.78;;
68976;SDS011;56029;52.568;13.588;2023-12-20T02:20:45;11.43;;;4.67;;
68976;SDS011;56029;52.568;13.588;2023-12-20T02:23:11;10.83;;;4.57;;
68976;SDS011;56029;52.568;13.588;2023-12-20T02:25:36;11.32;;;4.40;;
68976;SDS011;56029;52.568;13.588;2023-12-20T02:28:02;10.07;;;3.80;;
68976;SDS011;56029;52.568;13.588;2023-12-20T02:30:28;10.83;;;3.90;;
68976;SDS011;56029;52.568;13.588;2023-12-20T02:32:53;10.67;;;4.07;;
68976;SDS011;56029;52.568;13.588;2023-12-20T02:35:19;9.63;;;3.13;;
68976;SDS011;56029;52.568;13.588;2023-12-20T02:37:44;8.30;;;3.15;;
68976;SDS011;56029;52.568;13.588;2023-12-20T02:40:10;7.53;;;2.93;;
68976;SDS011;56029;52.568;13.588;2023-12-20T02:42:36;8.20;;;3.10;;
68976;SDS011;56029;52.568;13.588;2023-12-20T02:45:01;7.23;;;2.60;;
68976;SDS011;56029;52.568;13.588;2023-12-20T02:47:27;7.60;;;2.92;;
68976;SDS011;56029;52.568;13.588;2023-12-20T02:49:52;7.67;;;2.80;;
68976;SDS011;56029;52.568;13.588;2023-12-20T02:52:18;7.93;;;2.80;;
68976;SDS011;56029;52.568;13.588;2023-12-20T02:54:44;8.10;;;2.63;;
68976;SDS011;56029;52.568;13.588;2023-12-20T02:57:09;7.57;;;2.77;;
68976;SDS011;56029;52.568;13.588;2023-12-20T02:59:35;6.87;;;2.67;;
68976;SDS011;56029;52.568;13.588;2023-12-20T03:02:00;5.93;;;2.20;;
68976;SDS011;56029;52.568;13.588;2023-12-20T03:04:26;7.83;;;3.00;;
68976;SDS011;56029;52.568;13.588;2023-12-20T03:06:51;6.63;;;2.22;;
68976;SDS011;56029;52.568;13.588;2023-12-20T03:09:17;7.70;;;2.37;;
68976;SDS011;56029;52.568;13.588;2023-12-20T03:11:42;7.50;;;2.70;;
68976;SDS011;56029;52.568;13.588;2023-12-20T03:14:08;6.03;;;2.47;;
68976;SDS011;56029;52.568;13.588;2023-12-20T03:16:33;6.90;;;2.33;;
68976;SDS011;56029;52.568;13.588;2023-12-20T03:18:59;5.87;;;2.40;;
68976;SDS011;56029;52.568;13.588;2023-12-20T03:21:24;5.43;;;2.27;;
68976;SDS011;56029;52.568;13.588;2023-12-20T03:23:50;5.63;;;1.70;;
68976;SDS011;56029;52.568;13.588;2023-12-20T03:26:16;6.03;;;1.43;;
68976;SDS011;56029;52.568;13.588;2023-12-20T03:28:41;6.68;;;2.20;;
68976;SDS011;56029;52.568;13.588;2023-12-20T03:31:07;6.97;;;2.30;;
68976;SDS011;56029;52.568;13.588;2023-12-20T03:33:34;4.35;;;1.83;;
68976;SDS011;56029;52.568;13.588;2023-12-20T03:36:00;5.77;;;1.93;;
68976;SDS011;56029;52.568;13.588;2023-12-20T03:38:25;5.63;;;1.93;;
68976;SDS011;56029;52.568;13.588;2023-12-20T03:40:51;6.93;;;1.97;;
68976;SDS011;56029;52.568;13.588;2023-12-20T03:43:16;5.03;;;1.77;;
68976;SDS011;56029;52.568;13.588;2023-12-20T03:45:42;7.57;;;2.05;;
68976;SDS011;56029;52.568;13.588;2023-12-20T03:48:08;6.07;;;1.77;;
68976;SDS011;56029;52.568;13.588;2023-12-20T03:50:34;8.95;;;1.90;;
68976;SDS011;56029;52.568;13.588;2023-12-20T03:52:59;8.50;;;1.83;;
68976;SDS011;56029;52.568;13.588;2023-12-20T03:55:25;4.37;;;1.77;;
68976;SDS011;56029;52.568;13.588;2023-12-20T03:57:51;5.73;;;2.00;;
68976;SDS011;56029;52.568;13.588;2023-12-20T04:00:16;7.70;;;2.15;;
68976;SDS011;56029;52.568;13.588;2023-12-20T04:02:42;8.50;;;1.83;;
68976;SDS011;56029;52.568;13.588;2023-12-20T04:05:08;7.95;;;2.08;;
68976;SDS011;56029;52.568;13.588;2023-12-20T04:07:37;7.60;;;2.20;;
68976;SDS011;56029;52.568;13.588;2023-12-20T04:10:04;8.35;;;2.08;;
68976;SDS011;56029;52.568;13.588;2023-12-20T04:12:30;4.97;;;1.70;;
68976;SDS011;56029;52.568;13.588;2023-12-20T04:14:56;8.85;;;1.85;;
68976;SDS011;56029;52.568;13.588;2023-12-20T04:17:22;7.10;;;1.63;;
68976;SDS011;56029;52.568;13.588;2023-12-20T04:19:47;5.83;;;1.90;;
68976;SDS011;56029;52.568;13.588;2023-12-20T04:22:13;8.00;;;1.77;;
68976;SDS011;56029;52.568;13.588;2023-12-20T04:24:39;4.30;;;1.70;;
68976;SDS011;56029;52.568;13.588;2023-12-20T04:27:04;7.43;;;2.30;;
68976;SDS011;56029;52.568;13.588;2023-12-20T04:29:30;7.10;;;1.92;;
68976;SDS011;56029;52.568;13.588;2023-12-20T04:31:55;8.97;;;2.07;;
68976;SDS011;56029;52.568;13.588;2023-12-20T04:34:21;6.27;;;1.93;;
68976;SDS011;56029;52.568;13.588;2023-12-20T04:36:47;10.00;;;2.33;;
68976;SDS011;56029;52.568;13.588;2023-12-20T04:39:13;8.20;;;1.90;;
68976;SDS011;56029;52.568;13.588;2023-12-20T04:41:38;6.90;;;1.90;;
68976;SDS011;56029;52.568;13.588;2023-12-20T04:44:05;9.95;;;2.78;;
68976;SDS011;56029;52.568;13.588;2023-12-20T04:46:31;8.47;;;1.97;;
68976;SDS011;56029;52.568;13.588;2023-12-20T04:48:56;8.13;;;2.15;;
68976;SDS011;56029;52.568;13.588;2023-12-20T04:51:22;8.03;;;2.10;;
68976;SDS011;56029;52.568;13.588;2023-12-20T04:53:47;8.60;;;2.40;;
68976;SDS011;56029;52.568;13.588;2023-12-20T04:56:13;4.20;;;1.40;;
68976;SDS011;56029;52.568;13.588;2023-12-20T04:58:39;7.43;;;2.30;;
68976;SDS011;56029;52.568;13.588;2023-12-20T05:01:05;7.15;;;1.85;;
68976;SDS011;56029;52.568;13.588;2023-12-20T05:03:31;9.43;;;1.97;;
68976;SDS011;56029;52.568;13.588;2023-12-20T05:05:56;6.18;;;1.70;;
68976;SDS011;56029;52.568;13.588;2023-12-20T05:08:22;9.67;;;1.80;;
68976;SDS011;56029;52.568;13.588;2023-12-20T05:10:47;6.83;;;1.43;;
68976;SDS011;56029;52.568;13.588;2023-12-20T05:13:13;5.40;;;1.50;;
68976;SDS011;56029;52.568;13.588;2023-12-20T05:15:38;8.23;;;2.33;;
68976;SDS011;56029;52.568;13.588;2023-12-20T05:18:04;9.10;;;2.00;;
68976;SDS011;56029;52.568;13.588;2023-12-20T05:20:30;6.77;;;1.50;;
68976;SDS011;56029;52.568;13.588;2023-12-20T05:22:55;6.23;;;2.10;;
68976;SDS011;56029;52.568;13.588;2023-12-20T05:25:21;6.17;;;1.60;;
68976;SDS011;56029;52.568;13.588;2023-12-20T05:27:47;8.55;;;1.85;;
68976;SDS011;56029;52.568;13.588;2023-12-20T05:30:13;5.97;;;1.50;;
68976;SDS011;56029;52.568;13.588;2023-12-20T05:32:39;8.90;;;2.20;;
68976;SDS011;56029;52.568;13.588;2023-12-20T05:35:04;6.00;;;1.93;;
68976;SDS011;56029;52.568;13.588;2023-12-20T05:37:30;6.80;;;1.67;;
68976;SDS011;56029;52.568;13.588;2023-12-20T05:39:55;12.20;;;2.07;;
68976;SDS011;56029;52.568;13.588;2023-12-20T05:42:21;7.72;;;2.30;;
68976;SDS011;56029;52.568;13.588;2023-12-20T05:44:46;9.20;;;1.70;;
68976;SDS011;56029;52.568;13.588;2023-12-20T05:47:12;6.77;;;1.90;;
68976;SDS011;56029;52.568;13.588;2023-12-20T05:49:37;9.83;;;2.03;;
68976;SDS011;56029;52.568;13.588;2023-12-20T05:52:03;9.97;;;1.93;;
68976;SDS011;56029;52.568;13.588;2023-12-20T05:54:28;6.50;;;1.70;;
68976;SDS011;56029;52.568;13.588;2023-12-20T05:56:54;9.48;;;2.10;;
68976;SDS011;56029;52.568;13.588;2023-12-20T05:59:20;10.30;;;2.20;;
68976;SDS011;56029;52.568;13.588;2023-12-20T06:01:45;9.38;;;2.33;;
68976;SDS011;56029;52.568;13.588;2023-12-20T06:04:11;7.57;;;1.93;;
68976;SDS011;56029;52.568;13.588;2023-12-20T06:06:40;8.73;;;1.87;;
68976;SDS011;56029;52.568;13.588;2023-12-20T06:09:06;9.85;;;1.90;;
68976;SDS011;56029;52.568;13.588;2023-12-20T06:11:32;6.00;;;1.88;;
68976;SDS011;56029;52.568;13.588;2023-12-20T06:13:57;5.87;;;1.90;;
68976;SDS011;56029;52.568;13.588;2023-12-20T06:16:23;8.83;;;2.00;;
68976;SDS011;56029;52.568;13.588;2023-12-20T06:18:48;5.80;;;1.63;;
68976;SDS011;56029;52.568;13.588;2023-12-20T06:21:14;7.28;;;1.90;;
68976;SDS011;56029;52.568;13.588;2023-12-20T06:23:40;7.90;;;2.00;;
68976;SDS011;56029;52.568;13.588;2023-12-20T06:26:05;7.05;;;1.70;;
68976;SDS011;56029;52.568;13.588;2023-12-20T06:28:31;6.07;;;1.80;;
68976;SDS011;56029;52.568;13.588;2023-12-20T06:30:56;6.63;;;1.67;;
68976;SDS011;56029;52.568;13.588;2023-12-20T06:33:22;4.78;;;1.58;;
68976;SDS011;56029;52.568;13.588;2023-12-20T06:35:48;7.70;;;1.80;;
68976;SDS011;56029;52.568;13.588;2023-12-20T06:38:14;8.00;;;2.20;;
68976;SDS011;56029;52.568;13.588;2023-12-20T06:40:40;6.47;;;1.60;;
68976;SDS011;56029;52.568;13.588;2023-12-20T06:43:05;10.90;;;1.87;;
68976;SDS011;56029;52.568;13.588;2023-12-20T06:45:31;7.37;;;1.83;;
68976;SDS011;56029;52.568;13.588;2023-12-20T06:47:56;5.83;;;1.73;;
68976;SDS011;56029;52.568;13.588;2023-12-20T06:50:22;5.93;;;1.60;;
68976;SDS011;56029;52.568;13.588;2023-12-20T06:52:47;8.90;;;1.83;;
68976;SDS011;56029;52.568;13.588;2023-12-20T06:55:13;5.85;;;1.60;;
68976;SDS011;56029;52.568;13.588;2023-12-20T06:57:38;9.20;;;1.93;;
68976;SDS011;56029;52.568;13.588;2023-12-20T07:00:04;7.67;;;1.80;;
68976;SDS011;56029;52.568;13.588;2023-12-20T07:02:30;6.20;;;1.73;;
68976;SDS011;56029;52.568;13.588;2023-12-20T07:04:56;6.67;;;1.63;;
68976;SDS011;56029;52.568;13.588;2023-12-20T07:07:21;7.47;;;1.93;;
68976;SDS011;56029;52.568;13.588;2023-12-20T07:09:47;6.53;;;2.03;;
68976;SDS011;56029;52.568;13.588;2023-12-20T07:12:13;8.27;;;1.97;;
68976;SDS011;56029;52.568;13.588;2023-12-20T07:14:38;6.90;;;1.60;;
68976;SDS011;56029;52.568;13.588;2023-12-20T07:17:04;5.47;;;1.87;;
68976;SDS011;56029;52.568;13.588;2023-12-20T07:19:29;7.47;;;2.10;;
68976;SDS011;56029;52.568;13.588;2023-12-20T07:21:55;7.20;;;2.17;;
68976;SDS011;56029;52.568;13.588;2023-12-20T07:24:20;9.03;;;2.40;;
68976;SDS011;56029;52.568;13.588;2023-12-20T07:26:46;9.00;;;1.97;;
68976;SDS011;56029;52.568;13.588;2023-12-20T07:29:11;9.48;;;2.53;;
68976;SDS011;56029;52.568;13.588;2023-12-20T07:31:37;8.23;;;2.20;;
68976;SDS011;56029;52.568;13.588;2023-12-20T07:34:02;9.97;;;2.60;;
68976;SDS011;56029;52.568;13.588;2023-12-20T07:36:28;6.63;;;1.90;;
68976;SDS011;56029;52.568;13.588;2023-12-20T07:38:53;5.38;;;1.90;;
68976;SDS011;56029;52.568;13.588;2023-12-20T07:41:19;8.43;;;2.27;;
68976;SDS011;56029;52.568;13.588;2023-12-20T07:43:44;9.07;;;2.10;;
68976;SDS011;56029;52.568;13.588;2023-12-20T07:46:10;10.00;;;2.30;;
68976;SDS011;56029;52.568;13.588;2023-12-20T07:48:35;6.20;;;1.80;;
68976;SDS011;56029;52.568;13.588;2023-12-20T07:51:01;8.33;;;2.40;;
68976;SDS011;56029;52.568;13.588;2023-12-20T07:53:27;8.90;;;1.98;;
68976;SDS011;56029;52.568;13.588;2023-12-20T07:55:52;10.80;;;2.57;;
68976;SDS011;56029;52.568;13.588;2023-12-20T07:58:18;8.40;;;2.13;;
68976;SDS011;56029;52.568;13.588;2023-12-20T08:00:44;9.13;;;2.60;;
68976;SDS011;56029;52.568;13.588;2023-12-20T08:03:10;8.43;;;2.20;;
68976;SDS011;56029;52.568;13.588;2023-12-20T08:05:35;7.10;;;1.83;;
68976;SDS011;56029;52.568;13.588;2023-12-20T08:08:01;6.07;;;2.00;;
68976;SDS011;56029;52.568;13.588;2023-12-20T08:10:26;10.95;;;2.45;;
68976;SDS011;56029;52.568;13.588;2023-12-20T08:12:52;6.57;;;1.63;;
68976;SDS011;56029;52.568;13.588;2023-12-20T08:15:17;6.93;;;1.63;;
68976;SDS011;56029;52.568;13.588;2023-12-20T08:17:43;8.43;;;2.50;;
68976;SDS011;56029;52.568;13.588;2023-12-20T08:20:08;6.30;;;1.90;;
68976;SDS011;56029;52.568;13.588;2023-12-20T08:22:34;9.88;;;2.10;;
68976;SDS011;56029;52.568;13.588;2023-12-20T08:24:59;7.07;;;2.00;;
68976;SDS011;56029;52.568;13.588;2023-12-20T08:27:25;6.67;;;2.20;;
68976;SDS011;56029;52.568;13.588;2023-12-20T08:29:50;7.10;;;1.40;;
68976;SDS011;56029;52.568;13.588;2023-12-20T08:32:16;7.70;;;2.08;;
68976;SDS011;56029;52.568;13.588;2023-12-20T08:34:41;8.83;;;2.10;;
68976;SDS011;56029;52.568;13.588;2023-12-20T08:37:07;9.33;;;1.93;;
68976;SDS011;56029;52.568;13.588;2023-12-20T08:39:32;6.13;;;1.90;;
68976;SDS011;56029;52.568;13.588;2023-12-20T08:41:58;6.80;;;1.67;;
68976;SDS011;56029;52.568;13.588;2023-12-20T08:44:23;3.90;;;1.70;;
68976;SDS011;56029;52.568;13.588;2023-12-20T08:46:49;11.80;;;1.92;;
68976;SDS011;56029;52.568;13.588;2023-12-20T08:49:14;7.87;;;2.00;;
68976;SDS011;56029;52.568;13.588;2023-12-20T08:51:40;7.47;;;2.20;;
68976;SDS011;56029;52.568;13.588;2023-12-20T08:54:05;6.90;;;1.80;;
68976;SDS011;56029;52.568;13.588;2023-12-20T08:56:31;8.53;;;2.30;;
68976;SDS011;56029;52.568;13.588;2023-12-20T08:58:56;9.57;;;2.13;;
68976;SDS011;56029;52.568;13.588;2023-12-20T09:01:22;8.43;;;2.10;;
68976;SDS011;56029;52.568;13.588;2023-12-20T09:03:47;6.97;;;1.83;;
68976;SDS011;56029;52.568;13.588;2023-12-20T09:06:13;9.27;;;2.05;;
68976;SDS011;56029;52.568;13.588;2023-12-20T09:08:39;5.90;;;1.77;;
68976;SDS011;56029;52.568;13.588;2023-12-20T09:11:04;6.43;;;1.90;;
68976;SDS011;56029;52.568;13.588;2023-12-20T09:13:30;6.43;;;1.67;;
68976;SDS011;56029;52.568;13.588;2023-12-20T09:15:55;9.93;;;2.30;;
68976;SDS011;56029;52.568;13.588;2023-12-20T09:18:21;6.40;;;2.10;;
68976;SDS011;56029;52.568;13.588;2023-12-20T09:20:47;9.55;;;2.40;;
68976;SDS011;56029;52.568;13.588;2023-12-20T09:23:12;14.20;;;3.80;;
68976;SDS011;56029;52.568;13.588;2023-12-20T09:25:38;6.47;;;2.40;;
68976;SDS011;56029;52.568;13.588;2023-12-20T09:28:03;10.75;;;2.25;;
68976;SDS011;56029;52.568;13.588;2023-12-20T09:30:29;8.63;;;2.40;;
68976;SDS011;56029;52.568;13.588;2023-12-20T09:32:54;9.93;;;2.27;;
68976;SDS011;56029;52.568;13.588;2023-12-20T09:35:21;7.80;;;2.40;;
68976;SDS011;56029;52.568;13.588;2023-12-20T09:37:47;6.82;;;2.10;;
68976;SDS011;56029;52.568;13.588;2023-12-20T09:40:12;7.72;;;2.35;;
68976;SDS011;56029;52.568;13.588;2023-12-20T09:42:45;8.70;;;2.00;;
68976;SDS011;56029;52.568;13.588;2023-12-20T09:45:13;6.03;;;1.88;;
68976;SDS011;56029;52.568;13.588;2023-12-20T09:47:40;5.88;;;1.77;;
68976;SDS011;56029;52.568;13.588;2023-12-20T09:50:08;8.90;;;2.20;;
68976;SDS011;56029;52.568;13.588;2023-12-20T09:52:34;9.67;;;2.10;;
68976;SDS011;56029;52.568;13.588;2023-12-20T09:55:01;6.47;;;1.90;;
68976;SDS011;56029;52.568;13.588;2023-12-20T09:57:29;8.63;;;2.30;;
68976;SDS011;56029;52.568;13.588;2023-12-20T09:59:55;6.05;;;2.00;;
68976;SDS011;56029;52.568;13.588;2023-12-20T10:02:20;7.53;;;2.20;;
68976;SDS011;56029;52.568;13.588;2023-12-20T10:04:50;7.93;;;2.30;;
68976;SDS011;56029;52.568;13.588;2023-12-20T10:07:15;7.73;;;1.83;;
68976;SDS011;56029;52.568;13.588;2023-12-20T10:09:41;8.83;;;2.10;;
68976;SDS011;56029;52.568;13.588;2023-12-20T10:12:07;13.45;;;2.17;;
68976;SDS011;56029;52.568;13.588;2023-12-20T10:14:33;6.70;;;2.20;;
68976;SDS011;56029;52.568;13.588;2023-12-20T10:17:02;5.20;;;2.00;;
68976;SDS011;56029;52.568;13.588;2023-12-20T10:19:28;8.25;;;2.65;;
68976;SDS011;56029;52.568;13.588;2023-12-20T10:21:53;12.50;;;2.60;;
68976;SDS011;56029;52.568;13.588;2023-12-20T10:24:19;8.47;;;2.13;;
68976;SDS011;56029;52.568;13.588;2023-12-20T10:26:45;5.93;;;1.80;;
68976;SDS011;56029;52.568;13.588;2023-12-20T10:29:10;6.80;;;2.00;;
68976;SDS011;56029;52.568;13.588;2023-12-20T10:31:36;8.87;;;1.80;;
68976;SDS011;56029;52.568;13.588;2023-12-20T10:34:02;5.50;;;1.83;;
68976;SDS011;56029;52.568;13.588;2023-12-20T10:36:28;6.40;;;1.88;;
68976;SDS011;56029;52.568;13.588;2023-12-20T10:38:56;6.55;;;2.10;;
68976;SDS011;56029;52.568;13.588;2023-12-20T10:41:27;7.73;;;2.00;;
68976;SDS011;56029;52.568;13.588;2023-12-20T10:44:00;9.07;;;2.22;;
68976;SDS011;56029;52.568;13.588;2023-12-20T10:46:27;7.05;;;2.20;;
68976;SDS011;56029;52.568;13.588;2023-12-20T10:48:53;7.38;;;2.10;;
68976;SDS011;56029;52.568;13.588;2023-12-20T10:51:19;8.55;;;2.10;;
68976;SDS011;56029;52.568;13.588;2023-12-20T10:53:47;8.47;;;2.20;;
68976;SDS011;56029;52.568;13.588;2023-12-20T10:56:12;10.27;;;2.90;;
68976;SDS011;56029;52.568;13.588;2023-12-20T10:58:41;11.13;;;2.85;;
68976;SDS011;56029;52.568;13.588;2023-12-20T11:01:07;8.68;;;1.85;;
68976;SDS011;56029;52.568;13.588;2023-12-20T11:03:34;8.70;;;2.47;;
68976;SDS011;56029;52.568;13.588;2023-12-20T11:06:03;7.67;;;2.20;;
68976;SDS011;56029;52.568;13.588;2023-12-20T11:11:04;7.47;;;2.17;;
68976;SDS011;56029;52.568;13.588;2023-12-20T11:13:37;7.57;;;2.10;;
68976;SDS011;56029;52.568;13.588;2023-12-20T11:16:09;6.70;;;2.42;;
68976;SDS011;56029;52.568;13.588;2023-12-20T11:18:35;6.97;;;2.20;;
68976;SDS011;56029;52.568;13.588;2023-12-20T11:21:01;9.73;;;2.50;;
68976;SDS011;56029;52.568;13.588;2023-12-20T11:23:29;8.60;;;2.70;;
68976;SDS011;56029;52.568;13.588;2023-12-20T11:25:56;9.90;;;2.80;;
68976;SDS011;56029;52.568;13.588;2023-12-20T11:28:23;10.48;;;2.65;;
68976;SDS011;56029;52.568;13.588;2023-12-20T11:30:53;7.72;;;2.33;;
68976;SDS011;56029;52.568;13.588;2023-12-20T11:33:23;9.50;;;2.40;;
68976;SDS011;56029;52.568;13.588;2023-12-20T11:35:49;9.30;;;2.53;;
68976;SDS011;56029;52.568;13.588;2023-12-20T11:38:16;10.27;;;2.75;;
68976;SDS011;56029;52.568;13.588;2023-12-20T11:40:42;6.70;;;2.60;;
68976;SDS011;56029;52.568;13.588;2023-12-20T11:43:08;10.55;;;2.50;;
68976;SDS011;56029;52.568;13.588;2023-12-20T11:45:33;7.77;;;2.93;;
68976;SDS011;56029;52.568;13.588;2023-12-20T11:48:00;11.27;;;2.80;;
68976;SDS011;56029;52.568;13.588;2023-12-20T11:50:27;11.10;;;2.97;;
68976;SDS011;56029;52.568;13.588;2023-12-20T11:52:54;9.48;;;2.80;;
68976;SDS011;56029;52.568;13.588;2023-12-20T11:55:19;8.97;;;2.73;;
68976;SDS011;56029;52.568;13.588;2023-12-20T11:57:45;8.97;;;2.70;;
68976;SDS011;56029;52.568;13.588;2023-12-20T12:00:10;9.23;;;2.60;;
68976;SDS011;56029;52.568;13.588;2023-12-20T12:02:36;9.47;;;3.10;;
68976;SDS011;56029;52.568;13.588;2023-12-20T12:05:02;9.52;;;2.55;;
68976;SDS011;56029;52.568;13.588;2023-12-20T12:07:28;8.70;;;3.00;;
68976;SDS011;56029;52.568;13.588;2023-12-20T12:09:53;11.60;;;2.90;;
68976;SDS011;56029;52.568;13.588;2023-12-20T12:12:19;9.15;;;2.70;;
68976;SDS011;56029;52.568;13.588;2023-12-20T12:14:45;9.13;;;2.70;;
68976;SDS011;56029;52.568;13.588;2023-12-20T12:17:11;7.93;;;2.85;;
68976;SDS011;56029;52.568;13.588;2023-12-20T12:19:37;7.78;;;2.78;;
68976;SDS011;56029;52.568;13.588;2023-12-20T12:22:07;6.97;;;2.40;;
68976;SDS011;56029;52.568;13.588;2023-12-20T12:24:33;7.95;;;2.38;;
68976;SDS011;56029;52.568;13.588;2023-12-20T12:26:59;6.83;;;2.40;;
68976;SDS011;56029;52.568;13.588;2023-12-20T12:29:25;8.02;;;2.60;;
68976;SDS011;56029;52.568;13.588;2023-12-20T12:31:50;9.53;;;2.67;;
68976;SDS011;56029;52.568;13.588;2023-12-20T12:34:17;7.77;;;2.60;;
68976;SDS011;56029;52.568;13.588;2023-12-20T12:36:43;9.47;;;2.80;;
68976;SDS011;56029;52.568;13.588;2023-12-20T12:39:11;6.90;;;2.30;;
68976;SDS011;56029;52.568;13.588;2023-12-20T12:41:39;7.15;;;2.67;;
68976;SDS011;56029;52.568;13.588;2023-12-20T12:44:04;5.95;;;2.00;;
68976;SDS011;56029;52.568;13.588;2023-12-20T12:46:30;9.07;;;2.73;;
68976;SDS011;56029;52.568;13.588;2023-12-20T12:48:55;7.40;;;2.33;;
68976;SDS011;56029;52.568;13.588;2023-12-20T12:51:21;7.13;;;2.58;;
68976;SDS011;56029;52.568;13.588;2023-12-20T12:53:46;8.27;;;2.53;;
68976;SDS011;56029;52.568;13.588;2023-12-20T12:56:12;12.70;;;2.93;;
68976;SDS011;56029;52.568;13.588;2023-12-20T12:58:38;9.23;;;2.80;;
68976;SDS011;56029;52.568;13.588;2023-12-20T13:01:04;7.20;;;2.30;;
68976;SDS011;56029;52.568;13.588;2023-12-20T13:03:30;6.55;;;2.38;;
68976;SDS011;56029;52.568;13.588;2023-12-20T13:05:56;6.73;;;2.90;;
68976;SDS011;56029;52.568;13.588;2023-12-20T13:08:21;9.63;;;2.38;;
68976;SDS011;56029;52.568;13.588;2023-12-20T13:10:47;10.00;;;2.80;;
68976;SDS011;56029;52.568;13.588;2023-12-20T13:13:13;6.07;;;2.47;;
68976;SDS011;56029;52.568;13.588;2023-12-20T13:15:38;9.10;;;2.77;;
68976;SDS011;56029;52.568;13.588;2023-12-20T13:18:04;6.73;;;2.90;;
68976;SDS011;56029;52.568;13.588;2023-12-20T13:20:30;6.38;;;2.40;;
68976;SDS011;56029;52.568;13.588;2023-12-20T13:22:55;8.43;;;2.73;;
68976;SDS011;56029;52.568;13.588;2023-12-20T13:25:21;8.10;;;2.80;;
68976;SDS011;56029;52.568;13.588;2023-12-20T13:27:46;9.77;;;3.17;;
68976;SDS011;56029;52.568;13.588;2023-12-20T13:30:12;11.33;;;3.10;;
68976;SDS011;56029;52.568;13.588;2023-12-20T13:32:37;7.93;;;2.85;;
68976;SDS011;56029;52.568;13.588;2023-12-20T13:35:03;8.07;;;3.07;;
68976;SDS011;56029;52.568;13.588;2023-12-20T13:37:29;5.32;;;1.88;;
68976;SDS011;56029;52.568;13.588;2023-12-20T13:39:54;5.67;;;1.93;;
68976;SDS011;56029;52.568;13.588;2023-12-20T13:42:20;4.57;;;1.63;;
68976;SDS011;56029;52.568;13.588;2023-12-20T13:44:45;4.20;;;1.42;;
68976;SDS011;56029;52.568;13.588;2023-12-20T13:47:11;3.97;;;1.30;;
68976;SDS011;56029;52.568;13.588;2023-12-20T13:49:37;3.15;;;1.17;;
68976;SDS011;56029;52.568;13.588;2023-12-20T13:52:02;2.43;;;0.97;;
68976;SDS011;56029;52.568;13.588;2023-12-20T13:54:28;3.10;;;0.90;;
68976;SDS011;56029;52.568;13.588;2023-12-20T13:56:53;2.67;;;1.00;;
68976;SDS011;56029;52.568;13.588;2023-12-20T13:59:19;4.43;;;1.60;;
68976;SDS011;56029;52.568;13.588;2023-12-20T14:01:44;3.63;;;1.10;;
68976;SDS011;56029;52.568;13.588;2023-12-20T14:04:10;3.40;;;1.00;;
68976;SDS011;56029;52.568;13.588;2023-12-20T14:06:35;3.03;;;1.23;;
68976;SDS011;56029;52.568;13.588;2023-12-20T14:09:01;3.87;;;1.10;;
68976;SDS011;56029;52.568;13.588;2023-12-20T14:11:26;1.90;;;0.80;;
68976;SDS011;56029;52.568;13.588;2023-12-20T14:13:52;2.03;;;0.90;;
68976;SDS011;56029;52.568;13.588;2023-12-20T14:16:17;2.10;;;0.90;;
68976;SDS011;56029;52.568;13.588;2023-12-20T14:18:43;1.97;;;0.90;;
68976;SDS011;56029;52.568;13.588;2023-12-20T14:21:08;2.60;;;1.10;;
68976;SDS011;56029;52.568;13.588;2023-12-20T14:23:34;2.43;;;0.90;;
68976;SDS011;56029;52.568;13.588;2023-12-20T14:25:59;3.43;;;1.30;;